createdAt,value
2018-02-16T00:01:18.056Z,85.10
2018-02-16T00:03:45.527Z,84.50
2018-02-16T00:06:12.998Z,83.90
2018-02-16T00:08:40.949Z,83.70
2018-02-16T00:11:08.427Z,84.00
2018-02-16T00:13:36.742Z,84.30
2018-02-16T00:16:04.291Z,84.30
2018-02-16T00:18:32.226Z,84.10
2018-02-16T00:21:00.472Z,84.40
2018-02-16T00:23:27.960Z,84.30
2018-02-16T00:25:56.312Z,85.50
2018-02-16T00:28:24.488Z,84.90
2018-02-16T00:30:51.933Z,84.70
2018-02-16T00:33:19.608Z,85.00
2018-02-16T00:35:47.431Z,84.90
2018-02-16T00:38:15.432Z,85.00
2018-02-16T00:40:42.881Z,84.60
2018-02-16T00:43:10.371Z,84.60
2018-02-16T00:45:38.233Z,84.40
2018-02-16T00:48:05.704Z,84.70
2018-02-16T00:50:33.915Z,84.50
2018-02-16T00:53:01.388Z,84.50
2018-02-16T00:55:29.068Z,84.50
2018-02-16T00:57:57.033Z,84.40
2018-02-16T01:00:24.472Z,84.50
2018-02-16T01:02:51.962Z,84.60
2018-02-16T01:05:19.451Z,84.40
2018-02-16T01:07:47.644Z,83.80
2018-02-16T01:10:15.128Z,83.70
2018-02-16T01:12:42.571Z,83.40
2018-02-16T01:15:10.161Z,83.20
2018-02-16T01:17:37.632Z,83.10
2018-02-16T01:20:06.264Z,83.30
2018-02-16T01:22:33.707Z,83.20
2018-02-16T01:25:01.190Z,83.10
2018-02-16T01:27:28.633Z,83.00
2018-02-16T01:29:56.441Z,82.90
2018-02-16T01:32:23.877Z,82.80
2018-02-16T01:34:52.442Z,83.50
2018-02-16T01:37:20.695Z,82.50
2018-02-16T01:39:48.237Z,82.80
2018-02-16T01:42:16.478Z,83.20
2018-02-16T01:44:44.351Z,83.10
2018-02-16T01:47:12.278Z,83.30
2018-02-16T01:50:01.171Z,83.30
2018-02-16T01:52:28.645Z,83.50
2018-02-16T01:54:57.405Z,83.90
2018-02-16T01:57:24.870Z,83.40
2018-02-16T01:59:52.521Z,83.50
2018-02-16T02:02:20.030Z,83.70
2018-02-16T02:04:47.492Z,84.00
2018-02-16T02:07:15.070Z,83.80
2018-02-16T02:09:43.581Z,83.90
2018-02-16T02:12:11.043Z,83.70
2018-02-16T02:14:38.488Z,84.00
2018-02-16T02:17:05.951Z,84.00
2018-02-16T02:19:33.732Z,84.20
2018-02-16T02:22:01.187Z,84.20
2018-02-16T02:24:28.668Z,84.00
2018-02-16T02:26:56.900Z,83.70
2018-02-16T02:29:24.779Z,83.60
2018-02-16T02:31:52.240Z,83.10
2018-02-16T02:34:20.206Z,83.10
2018-02-16T02:36:48.156Z,83.30
2018-02-16T02:39:15.630Z,83.50
2018-02-16T02:41:43.104Z,83.80
2018-02-16T02:44:11.683Z,84.70
2018-02-16T02:46:39.906Z,84.80
2018-02-16T02:49:07.383Z,84.80
2018-02-16T02:51:34.835Z,85.20
2018-02-16T02:54:02.634Z,85.40
2018-02-16T02:56:30.832Z,85.40
2018-02-16T02:58:58.308Z,85.40
2018-02-16T03:01:25.867Z,85.20
2018-02-16T03:03:53.304Z,85.40
2018-02-16T03:06:20.781Z,85.20
2018-02-16T03:08:48.230Z,85.10
2018-02-16T03:11:15.832Z,84.90
2018-02-16T03:13:43.287Z,84.80
2018-02-16T03:16:10.795Z,84.70
2018-02-16T03:18:39.189Z,84.50
2018-02-16T03:21:06.900Z,84.60
2018-02-16T03:23:34.360Z,84.40
2018-02-16T03:26:02.590Z,85.10
2018-02-16T03:28:30.479Z,84.80
2018-02-16T03:30:57.936Z,84.90
2018-02-16T03:33:25.876Z,84.70
2018-02-16T03:35:53.924Z,84.70
2018-02-16T03:38:21.443Z,84.50
2018-02-16T03:40:48.885Z,84.60
2018-02-16T03:43:16.952Z,84.50
2018-02-16T03:45:44.405Z,84.40
2018-02-16T03:48:11.869Z,84.20
2018-02-16T03:50:39.317Z,84.10
2018-02-16T03:53:07.732Z,84.10
2018-02-16T03:55:36.180Z,83.90
2018-02-16T03:58:03.637Z,83.90
2018-02-16T04:00:31.115Z,84.00
2018-02-16T04:02:59.344Z,83.90
2018-02-16T04:05:26.909Z,83.90
2018-02-16T04:07:54.383Z,83.70
2018-02-16T04:10:22.147Z,83.90
2018-02-16T04:12:49.591Z,84.00
2018-02-16T04:15:17.387Z,83.90
2018-02-16T04:17:44.828Z,83.90
2018-02-16T04:20:12.506Z,83.90
2018-02-16T04:22:40.248Z,83.90
2018-02-16T04:25:07.697Z,84.00
2018-02-16T04:27:35.180Z,83.90
2018-02-16T04:30:03.075Z,83.70
2018-02-16T04:32:30.573Z,83.60
2018-02-16T04:34:58.669Z,83.40
2018-02-16T04:37:26.629Z,83.40
2018-02-16T04:39:54.265Z,83.40
2018-02-16T04:42:21.953Z,83.30
2018-02-16T04:44:51.353Z,83.10
2018-02-16T04:47:19.124Z,83.10
2018-02-16T04:49:46.667Z,83.30
2018-02-16T04:52:14.149Z,83.30
2018-02-16T04:54:41.910Z,83.10
2018-02-16T04:57:09.367Z,82.90
2018-02-16T04:59:36.840Z,82.80
2018-02-16T05:02:05.085Z,82.80
2018-02-16T05:04:32.533Z,82.80
2018-02-16T05:07:00.005Z,82.60
2018-02-16T05:09:27.955Z,82.40
2018-02-16T05:11:55.436Z,82.60
2018-02-16T05:14:22.889Z,82.70
2018-02-16T05:16:51.209Z,82.80
2018-02-16T05:19:18.968Z,83.00
2018-02-16T05:21:46.668Z,82.80
2018-02-16T05:24:14.168Z,82.80
2018-02-16T05:26:42.382Z,83.00
2018-02-16T05:29:10.276Z,83.00
2018-02-16T05:31:37.745Z,83.10
2018-02-16T05:34:05.286Z,83.10
2018-02-16T05:36:33.287Z,83.10
2018-02-16T05:39:01.555Z,83.10
2018-02-16T05:41:29.004Z,83.10
2018-02-16T05:43:56.960Z,83.00
2018-02-16T05:46:24.433Z,83.10
2018-02-16T05:48:51.903Z,83.00
2018-02-16T05:51:20.121Z,83.10
2018-02-16T05:53:48.124Z,83.00
2018-02-16T05:56:15.598Z,83.20
2018-02-16T05:58:43.827Z,83.50
2018-02-16T06:01:11.629Z,83.50
2018-02-16T06:03:39.148Z,83.30
2018-02-16T06:06:06.728Z,83.30
2018-02-16T06:08:34.208Z,83.30
2018-02-16T06:11:01.660Z,83.30
2018-02-16T06:13:29.141Z,83.00
2018-02-16T06:15:57.357Z,82.90
2018-02-16T06:18:24.895Z,82.80
2018-02-16T06:20:52.656Z,82.80
2018-02-16T06:23:20.154Z,82.90
2018-02-16T06:25:47.649Z,83.00
2018-02-16T06:28:15.705Z,83.00
2018-02-16T06:30:43.148Z,82.90
2018-02-16T06:33:10.704Z,83.30
2018-02-16T06:35:38.664Z,83.40
2018-02-16T06:38:06.118Z,83.30
2018-02-16T06:40:33.652Z,83.20
2018-02-16T06:43:01.239Z,83.30
2018-02-16T06:45:29.079Z,83.20
2018-02-16T06:47:56.513Z,83.20
2018-02-16T06:50:23.992Z,83.00
2018-02-16T06:52:51.443Z,83.00
2018-02-16T06:55:19.456Z,83.20
2018-02-16T06:57:46.893Z,83.00
2018-02-16T07:00:14.468Z,83.10
2018-02-16T07:02:41.908Z,83.30
2018-02-16T07:05:09.804Z,83.70
2018-02-16T07:07:37.348Z,83.50
2018-02-16T07:10:05.109Z,84.00
2018-02-16T07:12:32.735Z,83.40
2018-02-16T07:15:00.209Z,83.60
2018-02-16T07:17:27.732Z,83.80
2018-02-16T07:19:55.177Z,83.70
2018-02-16T07:22:22.955Z,83.80
2018-02-16T07:24:50.687Z,83.90
2018-02-16T07:27:19.033Z,84.40
2018-02-16T07:29:46.857Z,84.00
2018-02-16T07:32:14.307Z,84.10
2018-02-16T07:34:43.057Z,84.10
2018-02-16T07:37:10.512Z,84.10
2018-02-16T07:39:38.164Z,84.20
2018-02-16T07:42:05.633Z,84.30
2018-02-16T07:44:33.396Z,84.50
2018-02-16T07:47:00.871Z,84.60
2018-02-16T07:49:29.350Z,84.60
2018-02-16T07:51:57.572Z,84.50
2018-02-16T07:54:25.372Z,84.50
2018-02-16T07:56:52.841Z,84.40
2018-02-16T07:59:21.096Z,84.60
2018-02-16T08:01:48.565Z,84.60
2018-02-16T08:04:16.015Z,84.80
2018-02-16T08:06:43.532Z,84.90
2018-02-16T08:09:11.385Z,85.60
2018-02-16T08:11:38.870Z,85.00
2018-02-16T08:14:06.326Z,85.00
2018-02-16T08:16:33.820Z,85.20
2018-02-16T08:19:01.265Z,85.40
2018-02-16T08:21:29.158Z,86.10
2018-02-16T08:23:56.648Z,85.70
2018-02-16T08:26:24.132Z,85.40
2018-02-16T08:28:52.109Z,85.20
2018-02-16T08:31:19.603Z,85.20
2018-02-16T08:33:48.357Z,85.10
2018-02-16T08:36:16.300Z,85.00
2018-02-16T08:38:43.748Z,85.10
2018-02-16T08:41:11.257Z,85.10
2018-02-16T08:43:39.829Z,85.70
2018-02-16T08:46:07.312Z,85.10
2018-02-16T08:48:35.517Z,84.90
2018-02-16T08:51:03.414Z,84.80
2018-02-16T08:53:31.193Z,85.40
2018-02-16T08:55:58.670Z,85.30
2018-02-16T08:58:26.153Z,85.00
2018-02-16T09:00:53.602Z,84.80
2018-02-16T09:03:21.103Z,85.10
2018-02-16T09:05:48.598Z,85.00
2018-02-16T09:08:16.824Z,85.10
2018-02-16T09:10:46.931Z,85.10
2018-02-16T09:13:14.516Z,84.60
2018-02-16T09:15:41.986Z,84.10
2018-02-16T09:18:09.463Z,84.30
2018-02-16T09:20:37.516Z,84.40
2018-02-16T09:23:04.954Z,83.90
2018-02-16T09:25:32.426Z,83.90
2018-02-16T09:27:59.889Z,83.90
2018-02-16T09:30:27.749Z,83.60
2018-02-16T09:32:55.648Z,83.30
2018-02-16T09:35:24.333Z,83.50
2018-02-16T09:37:52.540Z,83.80
2018-02-16T09:40:20.772Z,83.70
2018-02-16T09:42:48.220Z,83.00
2018-02-16T09:45:15.924Z,83.50
2018-02-16T09:47:43.404Z,83.70
2018-02-16T09:50:10.921Z,83.10
2018-02-16T09:52:38.389Z,83.80
2018-02-16T09:55:06.458Z,82.50
2018-02-16T09:57:33.908Z,82.80
2018-02-16T10:00:01.395Z,82.60
2018-02-16T10:02:28.874Z,82.10
2018-02-16T10:04:56.464Z,82.10
2018-02-16T10:07:24.717Z,82.10
2018-02-16T10:09:52.168Z,82.10
2018-02-16T10:12:19.887Z,82.60
2018-02-16T10:14:47.307Z,82.50
2018-02-16T10:17:15.551Z,81.60
2018-02-16T10:19:43.008Z,81.50
2018-02-16T10:22:10.761Z,81.60
2018-02-16T10:24:38.256Z,81.90
2018-02-16T10:27:06.572Z,80.40
2018-02-16T10:29:34.669Z,80.40
2018-02-16T10:32:02.677Z,80.50
2018-02-16T10:34:31.482Z,80.40
2018-02-16T10:37:00.084Z,80.90
2018-02-16T10:39:27.920Z,81.50
2018-02-16T10:41:56.368Z,81.20
2018-02-16T10:44:24.347Z,81.20
2018-02-16T10:46:51.804Z,80.10
2018-02-16T10:49:19.273Z,79.80
2018-02-16T10:51:47.527Z,79.70
2018-02-16T10:54:15.411Z,79.70
2018-02-16T10:56:43.640Z,79.30
2018-02-16T10:59:11.085Z,79.30
2018-02-16T11:01:49.398Z,78.80
2018-02-16T11:04:23.550Z,78.30
2018-02-16T11:07:08.447Z,79.00
2018-02-16T11:09:40.984Z,77.50
2018-02-16T11:12:09.352Z,77.40
2018-02-16T11:14:36.829Z,77.50
2018-02-16T11:17:04.589Z,78.40
2018-02-16T11:19:34.245Z,76.80
2018-02-16T11:22:03.665Z,77.50
2018-02-16T11:24:31.110Z,76.60
2018-02-16T11:26:58.950Z,76.10
2018-02-16T11:29:27.533Z,75.90
2018-02-16T11:31:56.211Z,75.70
2018-02-16T11:34:24.868Z,74.80
2018-02-16T11:36:52.313Z,74.80
2018-02-16T11:39:19.985Z,74.40
2018-02-16T11:41:47.437Z,74.60
2018-02-16T11:44:15.537Z,74.10
2018-02-16T11:46:43.777Z,72.10
2018-02-16T11:49:11.285Z,72.00
2018-02-16T11:51:39.484Z,73.20
2018-02-16T11:54:07.283Z,73.10
2018-02-16T11:56:34.804Z,71.30
2018-02-16T11:59:02.241Z,70.90
2018-02-16T12:01:29.786Z,69.50
2018-02-16T12:03:57.999Z,70.00
2018-02-16T12:06:25.463Z,69.90
2018-02-16T12:08:52.921Z,70.40
2018-02-16T12:11:20.697Z,70.60
2018-02-16T12:13:48.141Z,72.80
2018-02-16T12:16:15.602Z,68.00
2018-02-16T12:18:43.374Z,66.30
2018-02-16T12:21:11.355Z,65.30
2018-02-16T12:23:39.222Z,64.40
2018-02-16T12:26:08.200Z,63.40
2018-02-16T12:28:36.703Z,63.30
2018-02-16T12:31:04.567Z,62.60
2018-02-16T12:33:32.229Z,63.30
2018-02-16T12:36:00.081Z,61.30
2018-02-16T12:38:27.518Z,61.00
2018-02-16T12:40:55.098Z,61.80
2018-02-16T12:43:23.180Z,60.60
2018-02-16T12:45:50.677Z,59.60
2018-02-16T12:48:18.929Z,57.90
2018-02-16T12:50:47.170Z,57.00
2018-02-16T12:53:15.273Z,57.00
2018-02-16T12:55:43.513Z,57.50
2018-02-16T12:58:11.250Z,57.50
2018-02-16T13:00:39.895Z,58.80
2018-02-16T13:03:07.351Z,59.30
2018-02-16T13:05:35.586Z,60.10
2018-02-16T13:08:03.032Z,60.10
2018-02-16T13:10:30.986Z,60.10
2018-02-16T13:12:58.452Z,61.70
2018-02-16T13:15:25.996Z,62.70
2018-02-16T13:17:53.801Z,62.70
2018-02-16T13:20:21.877Z,60.40
2018-02-16T13:22:49.641Z,57.70
2018-02-16T13:25:17.266Z,55.10
2018-02-16T13:27:44.709Z,54.40
2018-02-16T13:30:19.483Z,54.10
2018-02-16T13:32:46.939Z,52.80
2018-02-16T13:35:15.463Z,52.30
2018-02-16T13:37:43.676Z,52.30
2018-02-16T13:40:11.557Z,51.70
2018-02-16T13:42:39.035Z,52.00
2018-02-16T13:45:06.834Z,51.10
2018-02-16T13:47:34.308Z,51.00
2018-02-16T13:50:01.871Z,52.10
2018-02-16T13:52:29.453Z,51.10
2018-02-16T13:54:57.428Z,51.50
2018-02-16T13:57:24.899Z,52.40
2018-02-16T13:59:52.415Z,50.80
2018-02-16T14:02:19.884Z,51.70
2018-02-16T14:04:47.664Z,52.50
2018-02-16T14:07:15.136Z,52.50
2018-02-16T14:09:42.588Z,50.50
2018-02-16T14:12:10.882Z,47.70
2018-02-16T14:14:39.533Z,47.00
2018-02-16T14:17:07.618Z,47.00
2018-02-16T14:19:35.486Z,46.10
2018-02-16T14:22:03.469Z,46.80
2018-02-16T14:24:30.924Z,48.50
2018-02-16T14:26:59.140Z,49.80
2018-02-16T14:29:26.928Z,49.80
2018-02-16T14:31:54.381Z,48.60
2018-02-16T14:34:22.428Z,50.10
2018-02-16T14:36:49.898Z,49.30
2018-02-16T14:39:17.684Z,50.10
2018-02-16T14:41:45.136Z,48.60
2018-02-16T14:44:13.252Z,47.70
2018-02-16T14:46:40.653Z,47.50
2018-02-16T14:49:33.596Z,49.40
2018-02-16T14:52:01.159Z,49.30
2018-02-16T14:54:29.308Z,49.80
2018-02-16T14:56:56.786Z,49.10
2018-02-16T14:59:24.219Z,46.20
2018-02-16T15:01:53.319Z,45.10
2018-02-16T15:06:54.218Z,45.70
2018-02-16T15:09:21.732Z,45.00
2018-02-16T15:11:50.061Z,45.50
2018-02-16T15:14:17.638Z,45.30
2018-02-16T15:16:45.226Z,46.10
2018-02-16T15:19:13.009Z,46.00
2018-02-16T15:21:40.482Z,45.80
2018-02-16T15:24:09.097Z,46.60
2018-02-16T15:26:36.549Z,47.40
2018-02-16T15:29:04.624Z,48.40
2018-02-16T15:31:32.157Z,48.50
2018-02-16T15:33:59.599Z,48.40
2018-02-16T15:36:27.374Z,48.40
2018-02-16T15:38:55.087Z,47.00
2018-02-16T15:41:23.301Z,46.10
2018-02-16T15:43:50.780Z,46.00
2018-02-16T15:46:18.255Z,45.30
2018-02-16T15:48:45.718Z,45.70
2018-02-16T15:51:13.672Z,45.40
2018-02-16T15:53:41.468Z,46.10
2018-02-16T15:56:09.680Z,46.00
2018-02-16T15:58:37.710Z,46.00
2018-02-16T16:01:05.928Z,47.10
2018-02-16T16:03:33.694Z,46.60
2018-02-16T16:06:01.169Z,47.10
2018-02-16T16:08:28.696Z,46.80
2018-02-16T16:10:56.157Z,47.10
2018-02-16T16:13:23.628Z,47.00
2018-02-16T16:15:51.078Z,47.10
2018-02-16T16:18:18.584Z,47.60
2018-02-16T16:20:46.187Z,48.30
2018-02-16T16:23:13.952Z,48.80
2018-02-16T16:25:41.605Z,48.50
2018-02-16T16:28:09.470Z,48.80
2018-02-16T16:30:37.041Z,49.00
2018-02-16T16:33:04.832Z,49.20
2018-02-16T16:35:32.830Z,49.40
2018-02-16T16:38:00.271Z,49.40
2018-02-16T16:40:28.295Z,50.10
2018-02-16T16:42:55.746Z,49.60
2018-02-16T16:45:23.412Z,49.90
2018-02-16T16:47:50.890Z,50.70
2018-02-16T16:50:18.409Z,50.80
2018-02-16T16:52:45.902Z,51.00
2018-02-16T16:55:13.651Z,51.80
2018-02-16T16:57:41.093Z,52.10
2018-02-16T17:00:08.562Z,52.20
2018-02-16T17:02:36.478Z,52.30
2018-02-16T17:05:03.934Z,52.00
2018-02-16T17:07:31.403Z,52.70
2018-02-16T17:09:59.892Z,53.30
2018-02-16T17:12:28.111Z,53.60
2018-02-16T17:14:55.572Z,53.60
2018-02-16T17:17:23.053Z,54.20
2018-02-16T17:19:50.902Z,54.40
2018-02-16T17:22:18.356Z,54.50
2018-02-16T17:24:46.198Z,54.80
2018-02-16T17:27:14.645Z,55.40
2018-02-16T17:29:42.851Z,55.60
2018-02-16T17:32:10.321Z,55.70
2018-02-16T17:34:38.157Z,55.80
2018-02-16T17:37:06.464Z,56.10
2018-02-16T17:39:34.216Z,56.00
2018-02-16T17:42:02.083Z,56.40
2018-02-16T17:44:29.547Z,56.60
2018-02-16T17:46:57.128Z,56.70
2018-02-16T17:49:25.772Z,57.10
2018-02-16T17:51:53.743Z,57.10
2018-02-16T17:54:21.813Z,57.30
2018-02-16T17:56:49.690Z,57.20
2018-02-16T17:59:17.183Z,57.20
2018-02-16T18:01:44.629Z,57.00
2018-02-16T18:04:12.101Z,57.20
2018-02-16T18:06:39.583Z,56.90
2018-02-16T18:09:07.789Z,57.20
2018-02-16T18:11:35.402Z,57.20
2018-02-16T18:14:02.848Z,57.80
2018-02-16T18:16:30.873Z,57.50
2018-02-16T18:18:58.967Z,57.40
2018-02-16T18:21:28.172Z,56.80
2018-02-16T18:23:56.823Z,57.40
2018-02-16T18:26:24.610Z,57.30
2018-02-16T18:28:52.853Z,57.40
2018-02-16T18:31:20.517Z,57.40
2018-02-16T18:33:48.352Z,57.30
2018-02-16T18:36:16.584Z,57.20
2018-02-16T18:38:45.442Z,57.80
2018-02-16T18:41:13.366Z,57.80
2018-02-16T18:43:40.821Z,58.00
2018-02-16T18:46:08.644Z,58.20
2018-02-16T18:48:36.150Z,58.40
2018-02-16T18:51:04.271Z,58.80
2018-02-16T18:53:32.345Z,59.20
2018-02-16T18:56:00.442Z,59.40
2018-02-16T18:58:28.686Z,59.30
2018-02-16T19:00:56.162Z,59.90
2018-02-16T19:03:24.386Z,59.50
2018-02-16T19:05:52.062Z,59.50
2018-02-16T19:08:20.104Z,59.50
2018-02-16T19:10:47.586Z,59.60
2018-02-16T19:13:15.036Z,59.80
2018-02-16T19:15:42.572Z,59.90
2018-02-16T19:18:10.145Z,60.00
2018-02-16T19:20:37.585Z,60.10
2018-02-16T19:23:05.049Z,60.10
2018-02-16T19:25:32.849Z,60.20
2018-02-16T19:28:01.873Z,60.60
2018-02-16T19:30:30.492Z,60.80
2018-02-16T19:32:58.062Z,60.70
2018-02-16T19:35:25.872Z,61.10
2018-02-16T19:37:54.393Z,61.10
2018-02-16T19:40:22.417Z,61.10
2018-02-16T19:42:50.646Z,61.20
2018-02-16T19:45:18.711Z,61.40
2018-02-16T19:47:46.198Z,61.50
2018-02-16T19:50:14.747Z,61.70
2018-02-16T19:52:42.232Z,61.80
2018-02-16T19:55:10.337Z,62.00
2018-02-16T19:57:37.865Z,62.30
2018-02-16T20:00:06.241Z,62.50
2018-02-16T20:02:34.898Z,62.60
2018-02-16T20:05:02.769Z,62.60
2018-02-16T20:07:32.164Z,62.60
2018-02-16T20:10:00.077Z,63.20
2018-02-16T20:12:27.584Z,62.60
2018-02-16T20:14:55.865Z,63.30
2018-02-16T20:17:23.424Z,62.70
2018-02-16T20:19:51.187Z,62.70
2018-02-16T20:22:18.690Z,62.80
2018-02-16T20:24:46.817Z,62.80
2018-02-16T20:27:14.453Z,62.70
2018-02-16T20:29:43.062Z,62.70
2018-02-16T20:32:10.941Z,62.80
2018-02-16T20:34:39.539Z,62.80
2018-02-16T20:37:07.125Z,63.00
2018-02-16T20:39:35.111Z,63.10
2018-02-16T20:42:04.031Z,63.40
2018-02-16T20:44:32.674Z,63.40
2018-02-16T20:47:00.532Z,63.40
2018-02-16T20:49:28.108Z,63.60
2018-02-16T20:51:55.600Z,64.30
2018-02-16T20:54:23.911Z,63.50
2018-02-16T20:56:51.737Z,63.60
2018-02-16T20:59:19.241Z,63.90
2018-02-16T21:01:46.698Z,64.00
2018-02-16T21:04:14.211Z,64.00
2018-02-16T21:06:41.950Z,64.00
2018-02-16T21:09:10.182Z,64.30
2018-02-16T21:11:37.676Z,64.20
2018-02-16T21:14:05.884Z,64.30
2018-02-16T21:16:33.353Z,64.30
2018-02-16T21:19:02.294Z,64.40
2018-02-16T21:21:30.533Z,64.90
2018-02-16T21:23:58.500Z,64.00
2018-02-16T21:26:25.959Z,64.30
2018-02-16T21:28:53.437Z,64.40
2018-02-16T21:31:22.156Z,63.90
2018-02-16T21:33:49.885Z,64.30
2018-02-16T21:36:17.753Z,64.30
2018-02-16T21:38:46.008Z,64.70
2018-02-16T21:41:13.956Z,65.00
2018-02-16T21:43:41.441Z,64.80
2018-02-16T21:46:08.990Z,64.60
2018-02-16T21:48:36.457Z,64.80
2018-02-16T21:51:03.934Z,64.90
2018-02-16T21:53:32.698Z,65.20
2018-02-16T21:56:00.668Z,65.10
2018-02-16T21:58:28.161Z,65.00
2018-02-16T22:00:56.505Z,65.40
2018-02-16T22:03:24.531Z,65.30
2018-02-16T22:05:52.564Z,65.40
2018-02-16T22:08:20.029Z,65.60
2018-02-16T22:10:47.671Z,65.60
2018-02-16T22:13:15.124Z,65.40
2018-02-16T22:15:42.606Z,65.30
2018-02-16T22:18:10.080Z,65.30
2018-02-16T22:20:38.020Z,65.20
2018-02-16T22:23:06.690Z,65.60
2018-02-16T22:25:34.559Z,65.50
2018-02-16T22:28:02.203Z,65.70
2018-02-16T22:30:29.682Z,65.60
2018-02-16T22:32:57.137Z,65.40
2018-02-16T22:35:25.110Z,65.60
2018-02-16T22:37:52.552Z,65.70
2018-02-16T22:40:20.486Z,65.80
2018-02-16T22:42:48.509Z,65.90
2018-02-16T22:45:16.540Z,66.10
2018-02-16T22:47:44.013Z,66.10
2018-02-16T22:50:11.506Z,66.20
2018-02-16T22:52:39.770Z,66.00
2018-02-16T22:55:07.533Z,66.00
2018-02-16T22:57:35.026Z,66.00
2018-02-16T23:00:02.639Z,66.20
2018-02-16T23:02:30.166Z,66.10
2018-02-16T23:04:57.667Z,65.80
2018-02-16T23:07:25.140Z,65.90
2018-02-16T23:09:53.788Z,65.90
2018-02-16T23:12:21.526Z,65.90
2018-02-16T23:14:49.053Z,65.70
2018-02-16T23:17:16.654Z,65.80
2018-02-16T23:19:44.532Z,66.00
2018-02-16T23:22:12.374Z,66.20
2018-02-16T23:24:40.188Z,66.30
2018-02-16T23:27:07.968Z,66.30
2018-02-16T23:29:35.515Z,66.30
2018-02-16T23:32:03.014Z,66.50
2018-02-16T23:34:31.021Z,66.60
2018-02-16T23:36:58.491Z,66.60
2018-02-16T23:39:26.441Z,66.60
2018-02-16T23:41:54.229Z,66.40
2018-02-16T23:44:21.632Z,66.10
2018-02-16T23:46:49.130Z,66.10
2018-02-16T23:49:16.586Z,67.20
2018-02-16T23:51:44.168Z,66.50
2018-02-16T23:54:12.232Z,66.30
2018-02-16T23:56:39.735Z,68.20
2018-02-16T23:59:08.414Z,66.50
